Shenandoah, Ohio
Current Conditions -  °F | °C
As of 6:52 PM on Wednesday 28 Jan 2015 (Local Time) from KMFD Reporting Station
Clear Clear  
Wind Chill: 11°   Ceiling: Unl
Heat Index: 22°   Visibility: 10mi
Dew Point:   Wind: 10mph
Humidity: 58%   Direction: 150°SSE
Pressure: 30.23"   Gusts: NA
Location:  41.0314°N, 82.4861°W
Report Text: KMFD 282352Z 15009KT 10SM CLR M06/M13 A3023 RMK AO2 SLP261 T10561128 11017 21056 58008
Loading
Personal Weather Stations






























Interactive Weather Map New forecast layout! Learn more

10-Day Weather Forecast

Advertisements
Track Severe Weather on mobile